Terminal Aerodrome Forecast
Issued by NWS Jackson, MS

Home | Current Version | Previous Version | Text Only | Print | Product List | Glossary On
Versions: 1 2 3 4 5 6 7 8 9 10 11 12 13 14 15 16 17 18
000
FTUS44 KJAN 292342
TAFHBG
TAF
KHBG 292342Z 3000/3024 VRB06KT P6SM VCSH FEW060 BKN100 BKN200
     FM300100 VRB03KT P6SM FEW100 SCT200
     FM301000 VRB03KT 4SM BR FEW006
     FM301400 02006KT P6SM SCT030 BKN050
     FM301800 03007KT P6SM VCTS SCT040 BKN060CB=

USA.gov is the U.S. government's official web portal to all federal, state and local government web resources and services.